createdAt,value
2023-04-18T00:00:55.614Z,43.29
2023-04-18T00:03:22.986Z,43.06
2023-04-18T00:05:51.951Z,43.30
2023-04-18T00:08:19.014Z,42.85
2023-04-18T00:10:46.393Z,43.27
2023-04-18T00:13:13.584Z,42.16
2023-04-18T00:15:40.984Z,43.33
2023-04-18T00:18:08.208Z,42.16
2023-04-18T00:20:35.510Z,42.69
2023-04-18T00:23:04.070Z,42.72
2023-04-18T00:25:31.447Z,42.30
2023-04-18T00:27:58.577Z,42.41
2023-04-18T00:30:25.754Z,42.36
2023-04-18T00:32:53.187Z,42.12
2023-04-18T00:35:20.335Z,41.89
2023-04-18T00:37:47.461Z,42.02
2023-04-18T00:40:16.635Z,42.81
2023-04-18T00:42:43.835Z,42.56
2023-04-18T00:45:11.614Z,43.02
2023-04-18T00:47:38.779Z,42.96
2023-04-18T00:50:08.193Z,43.15
2023-04-18T00:52:35.535Z,43.16
2023-04-18T00:55:03.490Z,43.03
2023-04-18T00:57:32.233Z,43.88
2023-04-18T01:00:01.128Z,43.56
2023-04-18T01:02:28.834Z,44.12
2023-04-18T01:04:56.585Z,43.98
2023-04-18T01:07:23.753Z,43.94
2023-04-18T01:09:51.575Z,44.17
2023-04-18T01:12:18.657Z,44.18
2023-04-18T01:14:47.315Z,44.17
2023-04-18T01:17:14.553Z,44.69
2023-04-18T01:19:41.655Z,44.12
2023-04-18T01:22:10.455Z,44.25
2023-04-18T01:24:39.575Z,43.68
2023-04-18T01:27:06.932Z,43.95
2023-04-18T01:29:34.034Z,43.72
2023-04-18T01:32:01.194Z,44.40
2023-04-18T01:34:28.416Z,43.72
2023-04-18T01:36:55.572Z,44.43
2023-04-18T01:39:22.732Z,44.71
2023-04-18T01:41:51.351Z,44.13
2023-04-18T01:44:18.436Z,44.10
2023-04-18T01:46:45.731Z,44.65
2023-04-18T01:49:13.064Z,44.58
2023-04-18T01:51:40.353Z,43.90
2023-04-18T01:54:07.462Z,54.54
2023-04-18T01:56:34.554Z,49.23
2023-04-18T01:59:03.112Z,50.88
2023-04-18T02:01:30.210Z,47.52
2023-04-18T02:03:57.393Z,46.80
2023-04-18T02:06:24.779Z,46.69
2023-04-18T02:08:51.911Z,44.47
2023-04-18T02:11:19.092Z,44.32
2023-04-18T02:13:46.192Z,44.29
2023-04-18T02:16:14.995Z,43.58
2023-04-18T02:18:43.857Z,42.26
2023-04-18T02:21:11.031Z,39.95
2023-04-18T02:23:38.284Z,42.21
2023-04-18T02:26:05.601Z,41.29
2023-04-18T02:28:33.026Z,40.36
2023-04-18T02:31:00.513Z,40.71
2023-04-18T02:33:29.152Z,40.28
2023-04-18T02:35:56.345Z,38.55
2023-04-18T02:38:23.471Z,39.96
2023-04-18T02:40:50.556Z,39.83
2023-04-18T02:43:17.716Z,39.80
2023-04-18T02:45:44.857Z,39.29
2023-04-18T02:48:11.958Z,39.14
2023-04-18T02:50:40.488Z,39.36
2023-04-18T02:53:07.542Z,39.15
2023-04-18T02:55:34.651Z,39.35
2023-04-18T02:58:01.795Z,38.90
2023-04-18T03:00:29.214Z,38.84
2023-04-18T03:02:56.450Z,38.91
2023-04-18T03:05:23.765Z,38.75
2023-04-18T03:07:52.564Z,39.21
2023-04-18T03:10:19.822Z,39.22
2023-04-18T03:12:46.955Z,38.89
2023-04-18T03:15:14.194Z,38.83
2023-04-18T03:17:42.062Z,39.41
2023-04-18T03:20:10.172Z,39.23
2023-04-18T03:22:37.231Z,38.82
2023-04-18T03:25:07.391Z,38.96
2023-04-18T03:27:34.573Z,39.23
2023-04-18T03:30:01.915Z,39.14
2023-04-18T03:32:29.113Z,38.97
2023-04-18T03:34:56.171Z,39.46
2023-04-18T03:37:23.271Z,38.71
2023-04-18T03:39:50.394Z,38.76
2023-04-18T03:42:18.918Z,38.57
2023-04-18T03:44:45.991Z,39.29
2023-04-18T03:47:13.209Z,39.17
2023-04-18T03:49:40.336Z,38.72
2023-04-18T03:52:07.454Z,39.35
2023-04-18T03:54:34.522Z,38.74
2023-04-18T03:57:01.641Z,39.03
2023-04-18T03:59:30.297Z,38.70
2023-04-18T04:01:57.409Z,38.79
2023-04-18T04:04:24.800Z,38.62
2023-04-18T04:06:52.376Z,38.59
2023-04-18T04:09:19.516Z,38.42
2023-04-18T04:11:46.595Z,38.83
2023-04-18T04:14:14.067Z,38.74
2023-04-18T04:16:43.010Z,38.15
2023-04-18T04:19:10.357Z,38.40
2023-04-18T04:21:37.376Z,38.38
2023-04-18T04:24:04.977Z,38.54
2023-04-18T04:26:32.137Z,38.83
2023-04-18T04:28:59.238Z,38.71
2023-04-18T04:31:26.474Z,38.76
2023-04-18T04:33:55.053Z,38.29
2023-04-18T04:36:23.249Z,38.19
2023-04-18T04:38:50.409Z,38.64
2023-04-18T04:41:17.616Z,38.81
2023-04-18T04:43:44.757Z,38.62
2023-04-18T04:46:12.010Z,38.50
2023-04-18T04:48:39.093Z,38.35
2023-04-18T04:51:07.629Z,38.12
2023-04-18T04:53:36.148Z,38.65
2023-04-18T04:56:03.353Z,38.34
2023-04-18T04:58:30.473Z,38.52
2023-04-18T05:00:57.709Z,38.54
2023-04-18T05:03:25.126Z,38.81
2023-04-18T05:05:52.491Z,38.85
2023-04-18T05:08:20.977Z,38.58
2023-04-18T05:10:48.052Z,38.41
2023-04-18T05:13:15.139Z,38.53
2023-04-18T05:15:42.291Z,38.28
2023-04-18T05:18:09.558Z,38.89
2023-04-18T05:20:36.848Z,38.79
2023-04-18T05:23:04.039Z,38.45
2023-04-18T05:25:32.892Z,38.76
2023-04-18T05:28:01.108Z,38.77
2023-04-18T05:30:28.236Z,38.89
2023-04-18T05:32:55.366Z,38.34
2023-04-18T05:35:22.532Z,38.70
2023-04-18T05:37:49.754Z,38.54
2023-04-18T05:40:16.854Z,38.93
2023-04-18T05:42:45.538Z,38.96
2023-04-18T05:45:12.715Z,38.11
2023-04-18T05:47:39.884Z,39.65
2023-04-18T05:50:08.536Z,40.14
2023-04-18T05:52:37.857Z,40.08
2023-04-18T05:55:05.597Z,39.84
2023-04-18T05:57:32.936Z,40.79
2023-04-18T06:00:01.864Z,39.29
2023-04-18T06:02:29.224Z,38.68
2023-04-18T06:04:56.709Z,37.87
2023-04-18T06:07:24.396Z,37.15
2023-04-18T06:09:51.683Z,37.34
2023-04-18T06:12:18.759Z,36.66
2023-04-18T06:14:45.855Z,37.03
2023-04-18T06:17:14.691Z,36.49
2023-04-18T06:19:41.898Z,36.67
2023-04-18T06:22:09.209Z,37.32
2023-04-18T06:24:36.337Z,36.54
2023-04-18T06:27:05.116Z,37.71
2023-04-18T06:29:33.973Z,37.90
2023-04-18T06:32:02.266Z,37.33
2023-04-18T06:34:30.955Z,37.98
2023-04-18T06:36:58.240Z,38.38
2023-04-18T06:39:25.423Z,38.14
2023-04-18T06:41:52.642Z,38.25
2023-04-18T06:44:19.954Z,38.47
2023-04-18T06:46:47.181Z,38.16
2023-04-18T06:49:14.417Z,38.21
2023-04-18T06:51:42.935Z,38.60
2023-04-18T06:54:10.114Z,39.32
2023-04-18T06:56:37.915Z,39.01
2023-04-18T06:59:05.109Z,39.06
2023-04-18T07:01:32.655Z,38.93
2023-04-18T07:03:59.984Z,38.65
2023-04-18T07:06:27.562Z,38.38
2023-04-18T07:08:56.156Z,38.69
2023-04-18T07:11:23.293Z,39.30
2023-04-18T07:13:50.480Z,38.55
2023-04-18T07:16:17.834Z,38.94
2023-04-18T07:18:45.004Z,38.41
2023-04-18T07:21:12.247Z,38.39
2023-04-18T07:23:39.441Z,38.65
2023-04-18T07:26:08.179Z,38.91
2023-04-18T07:28:35.403Z,38.44
2023-04-18T07:31:03.411Z,38.66
2023-04-18T07:33:30.641Z,38.80
2023-04-18T07:35:57.855Z,38.48
2023-04-18T07:38:25.122Z,38.67
2023-04-18T07:40:57.078Z,38.06
2023-04-18T07:43:26.126Z,37.93
2023-04-18T07:45:53.858Z,38.27
2023-04-18T07:48:21.655Z,38.40
2023-04-18T07:50:48.816Z,38.51
2023-04-18T07:53:16.131Z,37.82
2023-04-18T07:55:43.444Z,36.62
2023-04-18T07:58:10.812Z,37.08
2023-04-18T08:00:40.090Z,37.00
2023-04-18T08:03:07.568Z,36.93
2023-04-18T08:05:35.109Z,35.57
2023-04-18T08:08:02.451Z,35.90
2023-04-18T08:10:29.922Z,35.52
2023-04-18T08:12:57.057Z,35.01
2023-04-18T08:15:24.174Z,33.71
2023-04-18T08:17:52.814Z,33.23
2023-04-18T08:20:20.236Z,34.42
2023-04-18T08:23:04.826Z,31.77
2023-04-18T08:25:34.002Z,34.42
2023-04-18T08:28:01.130Z,34.38
2023-04-18T08:32:57.322Z,34.48
2023-04-18T08:35:24.855Z,34.07
2023-04-18T08:37:52.382Z,34.45
2023-04-18T08:40:20.005Z,34.13
2023-04-18T08:42:47.258Z,31.49
2023-04-18T08:45:14.539Z,34.09
2023-04-18T08:47:42.534Z,33.20
2023-04-18T08:50:11.667Z,34.04
2023-04-18T08:52:40.197Z,32.64
2023-04-18T08:55:08.998Z,30.23
2023-04-18T08:57:36.601Z,32.91
2023-04-18T09:00:04.738Z,33.13
2023-04-18T09:02:36.775Z,32.96
2023-04-18T09:05:13.419Z,33.04
2023-04-18T09:07:41.314Z,32.45
2023-04-18T09:10:10.083Z,31.84
2023-04-18T09:12:42.914Z,32.55
2023-04-18T09:15:12.734Z,31.55
2023-04-18T09:17:41.822Z,32.43
2023-04-18T09:20:11.055Z,32.02
2023-04-18T09:22:50.505Z,30.58
2023-04-18T09:25:26.010Z,30.35
2023-04-18T09:27:53.785Z,32.67
2023-04-18T09:30:34.313Z,32.48
2023-04-18T09:33:03.122Z,32.85
2023-04-18T09:35:30.485Z,31.46
2023-04-18T09:37:59.255Z,31.42
2023-04-18T09:40:26.495Z,31.94
2023-04-18T09:42:54.495Z,32.85
2023-04-18T09:45:22.855Z,32.59
2023-04-18T09:47:51.035Z,32.06
2023-04-18T09:50:18.994Z,32.99
2023-04-18T09:52:47.019Z,32.60
2023-04-18T09:55:17.607Z,32.25
2023-04-18T09:57:47.438Z,32.97
2023-04-18T10:00:24.595Z,32.27
2023-04-18T10:02:57.377Z,32.20
2023-04-18T10:05:26.969Z,32.11
2023-04-18T10:07:55.271Z,32.91
2023-04-18T10:10:24.927Z,31.69
2023-04-18T10:12:54.995Z,30.45
2023-04-18T10:15:25.482Z,32.46
2023-04-18T10:18:04.331Z,31.60
2023-04-18T10:20:35.263Z,29.78
2023-04-18T10:23:35.175Z,32.80
2023-04-18T10:26:04.631Z,32.24
2023-04-18T10:28:50.006Z,32.73
2023-04-18T10:31:17.547Z,32.30
2023-04-18T10:34:00.707Z,30.71
2023-04-18T10:36:31.651Z,32.43
2023-04-18T10:39:01.507Z,32.44
2023-04-18T10:41:31.973Z,30.79
2023-04-18T10:44:18.931Z,31.07
2023-04-18T10:47:20.507Z,32.03
2023-04-18T10:49:56.579Z,32.31
2023-04-18T10:52:23.955Z,32.48
2023-04-18T10:54:59.110Z,30.67
2023-04-18T10:57:38.401Z,32.60
2023-04-18T11:00:09.915Z,32.69
2023-04-18T11:02:37.789Z,32.79
2023-04-18T11:05:07.520Z,33.09
2023-04-18T11:07:36.297Z,30.84
2023-04-18T11:10:04.062Z,32.67
2023-04-18T11:12:34.658Z,34.47
2023-04-18T11:15:11.170Z,33.90
2023-04-18T11:17:39.902Z,30.79
2023-04-18T11:20:09.634Z,29.91
2023-04-18T11:22:45.694Z,34.63
2023-04-18T11:25:13.202Z,33.65
2023-04-18T11:27:43.296Z,33.71
2023-04-18T11:30:11.435Z,30.47
2023-04-18T11:32:38.726Z,32.73
2023-04-18T11:35:09.629Z,32.83
2023-04-18T11:37:37.600Z,33.31
2023-04-18T11:40:06.493Z,32.25
2023-04-18T11:42:34.887Z,32.74
2023-04-18T11:45:04.535Z,29.97
2023-04-18T11:47:34.831Z,33.13
2023-04-18T11:50:04.691Z,32.97
2023-04-18T11:52:33.731Z,32.60
2023-04-18T11:55:13.308Z,30.14
2023-04-18T11:57:41.130Z,32.28
2023-04-18T12:00:11.338Z,33.30
2023-04-18T12:02:41.829Z,30.89
2023-04-18T12:05:09.958Z,31.52
2023-04-18T12:07:39.227Z,29.81
2023-04-18T12:10:09.669Z,31.67
2023-04-18T12:12:37.288Z,32.11
2023-04-18T12:15:07.680Z,35.83
2023-04-18T12:17:36.933Z,34.70
2023-04-18T12:20:06.331Z,31.46
2023-04-18T12:22:41.762Z,30.75
2023-04-18T12:25:20.264Z,35.06
2023-04-18T12:27:51.859Z,31.20
2023-04-18T12:30:20.067Z,30.23
2023-04-18T12:32:50.723Z,31.76
2023-04-18T12:35:19.414Z,34.27
2023-04-18T12:37:47.551Z,33.55
2023-04-18T12:40:15.807Z,32.01
2023-04-18T12:42:43.314Z,32.96
2023-04-18T12:45:11.909Z,30.89
2023-04-18T12:47:40.303Z,32.51
2023-04-18T12:50:11.606Z,31.21
2023-04-18T12:52:40.695Z,32.32
2023-04-18T12:55:09.607Z,31.75
2023-04-18T12:57:36.988Z,31.52
2023-04-18T13:00:05.112Z,32.07
2023-04-18T13:02:32.457Z,30.88
2023-04-18T13:04:59.911Z,30.44
2023-04-18T13:07:28.678Z,32.20
2023-04-18T13:09:55.800Z,31.93
2023-04-18T13:12:22.936Z,31.99
2023-04-18T13:14:50.108Z,31.67
2023-04-18T13:17:17.724Z,31.63
2023-04-18T13:19:44.944Z,32.15
2023-04-18T13:22:12.253Z,32.66
2023-04-18T13:24:40.882Z,32.23
2023-04-18T13:27:08.343Z,31.96
2023-04-18T13:29:35.493Z,34.60
2023-04-18T13:32:02.780Z,34.00
2023-04-18T13:34:29.970Z,32.82
2023-04-18T13:36:58.975Z,32.92
2023-04-18T13:39:26.232Z,31.18
2023-04-18T13:41:54.921Z,30.80
2023-04-18T13:44:22.096Z,30.46
2023-04-18T13:46:49.187Z,31.52
2023-04-18T13:49:16.466Z,31.39
2023-04-18T13:51:43.713Z,32.06
2023-04-18T13:54:10.859Z,31.16
2023-04-18T13:56:38.080Z,33.40
2023-04-18T13:59:06.978Z,31.29
2023-04-18T14:01:34.278Z,32.65
2023-04-18T14:04:02.868Z,32.90
2023-04-18T14:06:30.236Z,32.85
2023-04-18T14:08:57.435Z,33.63
2023-04-18T14:11:24.719Z,32.61
2023-04-18T14:13:51.925Z,33.54
2023-04-18T14:16:20.843Z,32.90
2023-04-18T14:18:48.176Z,32.86
2023-04-18T14:21:15.340Z,32.52
2023-04-18T14:23:42.715Z,33.39
2023-04-18T14:26:10.777Z,32.29
2023-04-18T14:28:37.905Z,32.26
2023-04-18T14:31:05.118Z,33.28
2023-04-18T14:33:33.738Z,32.65
2023-04-18T14:36:01.977Z,33.23
2023-04-18T14:38:29.080Z,31.88
2023-04-18T14:40:57.418Z,33.06
2023-04-18T14:43:25.055Z,32.45
2023-04-18T14:45:52.264Z,31.75
2023-04-18T14:48:19.607Z,30.82
2023-04-18T14:50:56.317Z,30.69
2023-04-18T14:53:23.594Z,29.33
2023-04-18T14:55:51.175Z,29.68
2023-04-18T14:58:18.436Z,30.64
2023-04-18T15:00:45.575Z,30.09
2023-04-18T15:03:12.862Z,30.25
2023-04-18T15:05:40.055Z,30.07
2023-04-18T15:08:09.051Z,29.90
2023-04-18T15:10:36.274Z,30.35
2023-04-18T15:13:03.369Z,30.42
2023-04-18T15:15:30.682Z,30.25
2023-04-18T15:17:58.054Z,30.34
2023-04-18T15:20:25.278Z,30.14
2023-04-18T15:22:52.569Z,29.78
2023-04-18T15:25:21.388Z,30.00
2023-04-18T15:27:51.497Z,30.50
2023-04-18T15:30:19.087Z,30.56
2023-04-18T15:32:46.281Z,30.22
2023-04-18T15:35:13.620Z,29.71
2023-04-18T15:37:40.866Z,29.43
2023-04-18T15:40:09.390Z,29.88
2023-04-18T15:42:39.401Z,30.14
2023-04-18T15:45:07.642Z,30.28
2023-04-18T15:47:34.947Z,29.95
2023-04-18T15:50:02.282Z,30.74
2023-04-18T15:52:29.579Z,30.20
2023-04-18T15:54:57.963Z,30.99
2023-04-18T15:57:25.203Z,30.65
2023-04-18T15:59:53.932Z,30.51
2023-04-18T16:02:21.286Z,30.63
2023-04-18T16:04:48.664Z,30.85
2023-04-18T16:07:17.601Z,30.50
2023-04-18T16:09:44.864Z,31.16
2023-04-18T16:12:12.255Z,30.66
2023-04-18T16:14:39.897Z,31.38
2023-04-18T16:17:08.539Z,31.89
2023-04-18T16:19:36.308Z,31.71
2023-04-18T16:22:03.592Z,31.72
2023-04-18T16:24:30.756Z,31.24
2023-04-18T16:26:57.995Z,31.07
2023-04-18T16:29:25.272Z,31.72
2023-04-18T16:31:52.602Z,31.89
2023-04-18T16:34:21.362Z,32.27
2023-04-18T16:36:50.786Z,32.05
2023-04-18T16:39:18.484Z,32.26
2023-04-18T16:41:45.806Z,31.04
2023-04-18T16:44:13.354Z,30.18
2023-04-18T16:46:40.929Z,29.49
2023-04-18T16:49:08.525Z,28.77
2023-04-18T16:51:38.103Z,27.51
2023-04-18T16:54:06.058Z,27.60
2023-04-18T16:56:34.361Z,27.23
2023-04-18T16:59:01.490Z,27.46
2023-04-18T17:01:28.684Z,27.90
2023-04-18T17:03:56.143Z,27.39
2023-04-18T17:06:23.483Z,27.20
2023-04-18T17:08:52.163Z,27.69
2023-04-18T17:11:19.605Z,27.38
2023-04-18T17:13:47.001Z,27.70
2023-04-18T17:16:14.289Z,27.50
2023-04-18T17:18:41.566Z,27.99
2023-04-18T17:21:08.880Z,27.94
2023-04-18T17:23:36.361Z,28.30
2023-04-18T17:26:05.127Z,28.24
2023-04-18T17:28:32.293Z,27.93
2023-04-18T17:30:59.454Z,27.92
2023-04-18T17:33:26.599Z,28.49
2023-04-18T17:35:53.896Z,29.08
2023-04-18T17:38:21.181Z,29.55
2023-04-18T17:40:48.422Z,29.94
2023-04-18T17:43:17.133Z,30.71
2023-04-18T17:45:44.246Z,31.41
2023-04-18T17:48:11.562Z,32.04
2023-04-18T17:50:38.805Z,32.37
2023-04-18T17:53:06.047Z,32.29
2023-04-18T17:55:33.327Z,32.50
2023-04-18T17:58:00.768Z,33.28
2023-04-18T18:00:30.717Z,33.76
2023-04-18T18:02:58.116Z,33.86
2023-04-18T18:05:25.355Z,33.65
2023-04-18T18:07:52.700Z,33.37
2023-04-18T18:10:20.400Z,33.96
2023-04-18T18:12:47.815Z,34.00
2023-04-18T18:15:15.815Z,34.23
2023-04-18T18:17:44.538Z,34.33
2023-04-18T18:20:12.138Z,34.51
2023-04-18T18:22:39.280Z,34.45
2023-04-18T18:25:07.475Z,34.18
2023-04-18T18:27:34.770Z,34.62
2023-04-18T18:30:01.999Z,34.51
2023-04-18T18:32:29.199Z,34.79
2023-04-18T18:34:57.894Z,35.03
2023-04-18T18:37:25.197Z,35.23
2023-04-18T18:39:52.372Z,35.74
2023-04-18T18:42:19.574Z,35.39
2023-04-18T18:44:46.674Z,35.67
2023-04-18T18:47:14.173Z,36.22
2023-04-18T18:49:41.434Z,35.96
2023-04-18T18:52:10.032Z,35.81
2023-04-18T18:54:37.192Z,36.18
2023-04-18T18:57:04.462Z,35.81
2023-04-18T18:59:32.909Z,36.00
2023-04-18T19:02:00.411Z,36.33
2023-04-18T19:04:28.030Z,36.69
2023-04-18T19:06:55.372Z,37.18
2023-04-18T19:09:24.074Z,36.51
2023-04-18T19:11:51.134Z,36.73
2023-04-18T19:14:18.433Z,43.28
2023-04-18T19:16:47.055Z,38.69
2023-04-18T19:19:14.409Z,36.43
2023-04-18T19:21:41.753Z,34.67
2023-04-18T19:24:09.028Z,33.81
2023-04-18T19:26:38.018Z,33.17
2023-04-18T19:29:06.873Z,32.09
2023-04-18T19:31:34.239Z,31.38
2023-04-18T19:34:01.694Z,30.33
2023-04-18T19:36:34.956Z,31.25
2023-04-18T19:39:02.406Z,32.10
2023-04-18T19:41:29.614Z,33.17
2023-04-18T19:43:58.138Z,34.33
2023-04-18T19:46:25.739Z,34.35
2023-04-18T19:48:53.730Z,34.48
2023-04-18T19:51:21.298Z,34.98
2023-04-18T19:53:48.639Z,35.12
2023-04-18T19:56:15.880Z,35.02
2023-04-18T19:58:43.652Z,35.13
2023-04-18T20:01:12.744Z,36.08
2023-04-18T20:03:40.733Z,35.71
2023-04-18T20:06:08.750Z,35.64
2023-04-18T20:08:38.191Z,35.90
2023-04-18T20:11:07.993Z,37.30
2023-04-18T20:13:35.651Z,37.37
2023-04-18T20:16:02.951Z,36.93
2023-04-18T20:18:31.608Z,37.22
2023-04-18T20:20:58.766Z,37.37
2023-04-18T20:23:25.942Z,37.45
2023-04-18T20:25:53.072Z,38.05
2023-04-18T20:28:20.312Z,38.05
2023-04-18T20:30:47.469Z,37.44
2023-04-18T20:33:14.690Z,37.50
2023-04-18T20:35:43.789Z,37.43
2023-04-18T20:38:11.531Z,37.69
2023-04-18T20:40:39.048Z,37.10
2023-04-18T20:43:06.209Z,37.47
2023-04-18T20:45:33.830Z,37.40
2023-04-18T20:48:01.359Z,37.52
2023-04-18T20:50:28.651Z,37.28
2023-04-18T20:52:57.131Z,37.29
2023-04-18T20:55:24.310Z,37.34
2023-04-18T20:57:51.550Z,37.18
2023-04-18T21:00:19.050Z,37.41
2023-04-18T21:02:46.277Z,37.13
2023-04-18T21:05:13.531Z,37.21
2023-04-18T21:07:40.747Z,37.89
2023-04-18T21:10:10.311Z,37.25
2023-04-18T21:12:37.510Z,37.14
2023-04-18T21:15:05.584Z,37.52
2023-04-18T21:17:32.744Z,37.82
2023-04-18T21:19:59.916Z,38.31
2023-04-18T21:22:27.052Z,37.46
2023-04-18T21:24:54.196Z,37.77
2023-04-18T21:27:22.730Z,39.26
2023-04-18T21:29:49.808Z,38.54
2023-04-18T21:32:17.140Z,37.89
2023-04-18T21:34:44.294Z,38.57
2023-04-18T21:37:11.475Z,38.05
2023-04-18T21:39:38.703Z,37.69
2023-04-18T21:42:05.931Z,37.43
2023-04-18T21:44:34.574Z,37.26
2023-04-18T21:47:01.873Z,38.75
2023-04-18T21:49:28.932Z,38.21
2023-04-18T21:51:56.251Z,38.38
2023-04-18T21:54:23.413Z,37.77
2023-04-18T21:56:50.517Z,37.86
2023-04-18T21:59:17.734Z,38.40
2023-04-18T22:01:46.331Z,37.95
2023-04-18T22:04:13.806Z,37.95
2023-04-18T22:06:41.232Z,38.14
2023-04-18T22:09:08.392Z,38.40
2023-04-18T22:11:35.656Z,38.24
2023-04-18T22:14:02.815Z,38.67
2023-04-18T22:16:30.073Z,38.18
2023-04-18T22:18:59.207Z,38.25
2023-04-18T22:21:26.393Z,38.80
2023-04-18T22:23:53.522Z,39.06
2023-04-18T22:26:20.826Z,39.34
2023-04-18T22:28:47.997Z,39.18
2023-04-18T22:31:15.326Z,39.03
2023-04-18T22:33:42.490Z,38.96
2023-04-18T22:36:11.089Z,39.35
2023-04-18T22:38:38.232Z,38.80
2023-04-18T22:41:05.550Z,39.46
2023-04-18T22:43:33.130Z,39.34
2023-04-18T22:46:00.418Z,39.34
2023-04-18T22:48:27.650Z,39.34
2023-04-18T22:50:54.969Z,39.29
2023-04-18T22:53:23.583Z,39.59
2023-04-18T22:55:50.865Z,39.44
2023-04-18T22:58:17.978Z,39.47
2023-04-18T23:00:46.884Z,39.52
2023-04-18T23:03:14.128Z,39.97
2023-04-18T23:05:41.540Z,39.99
2023-04-18T23:08:08.671Z,39.40
2023-04-18T23:10:38.173Z,39.36
2023-04-18T23:13:05.282Z,39.34
2023-04-18T23:15:32.459Z,39.07
2023-04-18T23:17:59.861Z,39.58
2023-04-18T23:20:27.017Z,40.14
2023-04-18T23:22:54.165Z,40.05
2023-04-18T23:25:21.397Z,40.33
2023-04-18T23:27:49.991Z,39.88
2023-04-18T23:30:18.568Z,39.89
2023-04-18T23:32:45.717Z,39.56
2023-04-18T23:35:12.973Z,40.02
2023-04-18T23:37:40.114Z,39.65
2023-04-18T23:40:09.050Z,39.89
2023-04-18T23:42:37.233Z,40.10
2023-04-18T23:45:07.095Z,40.07
2023-04-18T23:47:34.247Z,39.56
2023-04-18T23:50:01.548Z,39.99
2023-04-18T23:52:28.689Z,40.15
2023-04-18T23:54:58.766Z,39.78
2023-04-18T23:57:25.991Z,40.48
2023-04-18T23:59:53.279Z,40.67
